Open Full Screen Window  High Contrast Mode
Wind Gusting 14 knots
09
August 03, 2015 2:45 PM EDT
Weather Information
Wind Direction
  210 °
Wind Speed
  09 kt (10 mph)
Wind Gust
  14 kt (16 mph)
Variable Wind
180°
240°
Altimeter
29.87 in
Visibility
10 SM
Temperature
29° C
84° F
Dewpoint
19° C
66° F
Humidity
55%
1hr Rain Fall
00.00 in.
24hr Rain Fall
00.00 in.
Sky Condition
Clear
VFR

METAR KI69 031845Z AUTO 21009G14KT 180V240 10SM CLR 29/19 A2987 RMK AO1

*Background is not an actual portrayal of the airport.